Time;durP1;ratioP1;P1;durP2;ratioP2;P2;SDS_P1;SDS_P2;PMS_P1;PMS_P2;Temp;Humidity;BMP_temperature;BMP_pressure;BME280_temperature;BME280_humidity;BME280_pressure;Samples;Min_cycle;Max_cycle;Signal;HPM_P1;HPM_P2
2022/01/13 00:00:51;;;;;;;;;30.25;27.50;;;;;;;;5028220;28;46370;-63
2022/01/13 00:03:16;;;;;;;;;28.75;25.25;;;;;;;;5011120;28;46423;-65
2022/01/13 00:05:41;;;;;;;;;29.50;21.50;;;;;;;;5028390;28;45477;-64
2022/01/13 00:08:06;;;;;;;;;27.00;27.00;;;;;;;;5029023;28;45510;-62
2022/01/13 00:10:31;;;;;;;;;28.25;25.00;;;;;;;;5024110;28;48321;-63
2022/01/13 00:13:03;;;;;;;;;35.50;32.75;;;;;;;;5031100;28;45500;-64
2022/01/13 00:18:13;;;;;;;;;27.25;24.00;;;;;;;;5026530;28;45432;-64
2022/01/13 00:26:02;;;;;;;;;19.00;18.00;;;;;;;;5060711;27;45432;-65
2022/01/13 00:28:27;;;;;;;;;28.75;24.75;;;;;;;;5070988;28;45512;-63
2022/01/13 00:30:55;;;;;;;;;26.50;22.75;;;;;;;;5064805;28;45414;-63
2022/01/13 00:33:24;;;;;;;;;27.75;23.25;;;;;;;;5070392;27;46000;-63
2022/01/13 00:35:49;;;;;;;;;25.50;20.00;;;;;;;;5069665;27;45444;-64
2022/01/13 00:38:15;;;;;;;;;23.75;20.75;;;;;;;;5068915;28;45481;-64
2022/01/13 00:40:40;;;;;;;;;24.25;23.00;;;;;;;;5060031;28;45496;-64
2022/01/13 00:43:05;;;;;;;;;20.50;18.25;;;;;;;;5068416;28;45615;-63
2022/01/13 00:45:30;;;;;;;;;19.25;19.00;;;;;;;;5063034;27;45326;-63
2022/01/13 00:47:55;;;;;;;;;26.25;21.75;;;;;;;;5065022;28;45391;-64
2022/01/13 00:50:21;;;;;;;;;19.00;16.75;;;;;;;;5067891;28;47516;-64
2022/01/13 00:52:46;;;;;;;;;28.75;23.50;;;;;;;;5070286;28;45551;-63
2022/01/13 00:55:17;;;;;;;;;26.75;18.00;;;;;;;;5073522;27;45439;-63
2022/01/13 00:57:42;;;;;;;;;28.25;22.50;;;;;;;;5071647;27;45407;-63
2022/01/13 01:00:07;;;;;;;;;23.50;17.75;;;;;;;;5070050;28;45843;-64
2022/01/13 01:02:33;;;;;;;;;16.00;16.00;;;;;;;;5068823;27;45615;-64
2022/01/13 01:04:58;;;;;;;;;19.25;18.50;;;;;;;;5066514;28;45666;-63
2022/01/13 01:07:23;;;;;;;;;18.00;18.00;;;;;;;;5069750;28;45669;-63
2022/01/13 01:09:50;;;;;;;;;24.00;21.75;;;;;;;;5069358;27;45417;-63
2022/01/13 01:12:16;;;;;;;;;21.25;21.00;;;;;;;;5068586;28;46141;-62
2022/01/13 01:14:47;;;;;;;;;24.50;17.75;;;;;;;;5069338;27;45401;-62
2022/01/13 01:17:15;;;;;;;;;20.00;17.00;;;;;;;;5070205;27;45751;-64
2022/01/13 01:19:43;;;;;;;;;22.50;21.50;;;;;;;;5069548;28;45868;-63
2022/01/13 01:25:00;;;;;;;;;23.25;20.00;;;;;;;;5069534;28;45558;-63
2022/01/13 01:27:32;;;;;;;;;19.25;16.25;;;;;;;;5065087;28;45584;-63
2022/01/13 01:30:08;;;;;;;;;19.25;17.00;;;;;;;;5069159;27;45567;-63
2022/01/13 01:32:35;;;;;;;;;18.00;18.00;;;;;;;;5069373;27;45417;-64
2022/01/13 01:35:02;;;;;;;;;27.75;21.50;;;;;;;;5068930;27;45440;-63
2022/01/13 01:37:29;;;;;;;;;16.25;14.75;;;;;;;;5070940;28;45499;-62
2022/01/13 01:39:56;;;;;;;;;18.25;17.00;;;;;;;;5069897;28;47740;-63
2022/01/13 01:42:22;;;;;;;;;18.50;15.75;;;;;;;;5070579;28;45303;-63
2022/01/13 01:44:49;;;;;;;;;22.25;19.25;;;;;;;;5070295;27;45505;-62
2022/01/13 01:47:16;;;;;;;;;18.25;16.50;;;;;;;;5069439;28;45880;-63
2022/01/13 01:49:46;;;;;;;;;15.00;15.00;;;;;;;;5069460;28;48074;-64
2022/01/13 01:52:13;;;;;;;;;20.50;15.75;;;;;;;;5070484;27;45506;-63
2022/01/13 01:54:38;;;;;;;;;13.50;13.50;;;;;;;;5068594;27;45729;-63
2022/01/13 01:57:04;;;;;;;;;15.75;14.00;;;;;;;;5069229;27;45439;-63
2022/01/13 01:59:32;;;;;;;;;13.00;12.75;;;;;;;;5064422;28;48309;-62
2022/01/13 02:01:57;;;;;;;;;13.50;12.25;;;;;;;;5058611;27;45549;-63
2022/01/13 02:04:25;;;;;;;;;15.50;14.50;;;;;;;;5071274;28;45553;-64
2022/01/13 02:06:50;;;;;;;;;15.00;12.00;;;;;;;;5071014;27;45509;-64
2022/01/13 02:09:17;;;;;;;;;14.00;11.75;;;;;;;;5068394;28;46847;-64
2022/01/13 02:11:45;;;;;;;;;16.25;13.25;;;;;;;;5068307;28;46041;-63
2022/01/13 02:14:36;;;;;;;;;12.50;11.75;;;;;;;;5069286;28;45701;-64
2022/01/13 02:17:06;;;;;;;;;12.00;11.75;;;;;;;;5053913;28;45396;-63
2022/01/13 02:19:33;;;;;;;;;12.75;11.25;;;;;;;;5069397;28;45930;-64
2022/01/13 02:21:59;;;;;;;;;11.00;9.50;;;;;;;;5072030;28;45512;-64
2022/01/13 02:24:25;;;;;;;;;12.00;9.50;;;;;;;;5070248;28;45367;-64
2022/01/13 02:26:50;;;;;;;;;8.50;7.75;;;;;;;;5063863;28;45456;-63
2022/01/13 02:29:15;;;;;;;;;15.25;13.00;;;;;;;;5068165;28;45567;-63
2022/01/13 02:31:40;;;;;;;;;12.25;11.25;;;;;;;;5070319;27;45431;-62
2022/01/13 02:34:06;;;;;;;;;16.00;14.00;;;;;;;;5072788;27;45539;-64
2022/01/13 02:36:31;;;;;;;;;12.25;12.25;;;;;;;;5049669;28;45520;-65
2022/01/13 02:38:57;;;;;;;;;8.00;8.00;;;;;;;;5063332;28;45952;-64
2022/01/13 02:41:23;;;;;;;;;14.50;11.50;;;;;;;;5069612;27;45745;-64
2022/01/13 02:43:53;;;;;;;;;14.25;13.00;;;;;;;;5068575;28;45846;-63
2022/01/13 02:46:29;;;;;;;;;10.50;10.25;;;;;;;;5066766;27;45893;-63
2022/01/13 02:48:54;;;;;;;;;11.25;11.00;;;;;;;;5069410;28;48001;-63
2022/01/13 02:51:20;;;;;;;;;12.25;11.75;;;;;;;;5068451;28;45477;-64
2022/01/13 02:53:45;;;;;;;;;17.25;13.50;;;;;;;;5069842;27;46408;-64
2022/01/13 02:56:10;;;;;;;;;15.25;11.75;;;;;;;;5069656;27;45448;-62
2022/01/13 02:58:35;;;;;;;;;15.00;15.00;;;;;;;;5069812;28;45592;-63
2022/01/13 03:01:03;;;;;;;;;16.75;14.00;;;;;;;;5071814;28;45608;-63
2022/01/13 03:03:30;;;;;;;;;13.75;11.75;;;;;;;;5069720;27;45455;-63
2022/01/13 03:05:55;;;;;;;;;19.75;15.00;;;;;;;;5069663;27;45393;-63
2022/01/13 03:08:21;;;;;;;;;17.75;16.00;;;;;;;;5069561;27;45533;-62
2022/01/13 03:10:46;;;;;;;;;13.50;11.50;;;;;;;;5069778;28;45644;-63
2022/01/13 03:13:11;;;;;;;;;21.75;16.25;;;;;;;;5071977;27;45968;-62
2022/01/13 03:15:36;;;;;;;;;17.25;13.25;;;;;;;;5068230;28;45518;-63
2022/01/13 03:18:02;;;;;;;;;17.50;16.25;;;;;;;;5069241;27;45487;-63
2022/01/13 03:20:27;;;;;;;;;17.75;13.25;;;;;;;;5069470;27;45526;-64
2022/01/13 03:22:52;;;;;;;;;15.75;13.00;;;;;;;;5069794;28;45400;-63
2022/01/13 03:25:23;;;;;;;;;18.75;15.50;;;;;;;;5071511;28;45444;-63
2022/01/13 03:27:56;;;;;;;;;15.25;15.25;;;;;;;;5069269;28;45791;-62
2022/01/13 03:30:21;;;;;;;;;16.50;15.25;;;;;;;;5072764;27;45810;-63
2022/01/13 03:32:46;;;;;;;;;16.00;16.00;;;;;;;;5071725;28;45247;-64
2022/01/13 03:35:12;;;;;;;;;7.00;5.75;;;;;;;;5073134;28;45396;-63
2022/01/13 03:37:37;;;;;;;;;17.50;16.25;;;;;;;;5073238;28;45995;-63
2022/01/13 03:40:03;;;;;;;;;19.00;15.75;;;;;;;;5069234;27;45357;-63
2022/01/13 03:42:28;;;;;;;;;17.25;16.50;;;;;;;;5069213;28;45424;-63
2022/01/13 03:44:54;;;;;;;;;18.75;17.50;;;;;;;;5073014;28;45628;-63
2022/01/13 03:47:20;;;;;;;;;14.75;14.75;;;;;;;;5072056;27;45724;-64
2022/01/13 03:49:45;;;;;;;;;18.00;14.25;;;;;;;;5072714;28;45169;-62
2022/01/13 03:52:14;;;;;;;;;14.75;12.75;;;;;;;;5075105;28;45439;-63
2022/01/13 03:54:39;;;;;;;;;12.75;12.75;;;;;;;;5072505;28;45570;-63
2022/01/13 03:57:13;;;;;;;;;17.00;14.00;;;;;;;;5072434;27;45543;-62
2022/01/13 04:00:00;;;;;;;;;16.25;13.25;;;;;;;;5072508;27;45431;-63
2022/01/13 04:02:26;;;;;;;;;13.50;13.00;;;;;;;;5072288;27;45513;-62
2022/01/13 04:04:52;;;;;;;;;12.00;11.00;;;;;;;;5072504;27;45426;-63
2022/01/13 04:07:18;;;;;;;;;14.25;12.75;;;;;;;;5074006;28;46373;-62
2022/01/13 04:09:43;;;;;;;;;13.75;10.50;;;;;;;;5070586;28;46627;-62
2022/01/13 04:12:11;;;;;;;;;11.25;11.25;;;;;;;;5071217;27;45628;-63
2022/01/13 04:14:58;;;;;;;;;13.25;11.50;;;;;;;;5062443;28;45564;-63
2022/01/13 04:17:24;;;;;;;;;20.00;15.50;;;;;;;;5071811;27;46500;-64
2022/01/13 04:19:49;;;;;;;;;13.50;11.50;;;;;;;;5071723;27;45703;-64
2022/01/13 04:22:16;;;;;;;;;13.00;10.75;;;;;;;;5072558;28;45811;-64
2022/01/13 04:24:45;;;;;;;;;15.75;10.00;;;;;;;;5072238;27;45602;-64
2022/01/13 04:27:12;;;;;;;;;14.25;12.25;;;;;;;;5071639;28;46575;-64
2022/01/13 04:29:41;;;;;;;;;12.00;10.75;;;;;;;;5070561;28;46486;-63
2022/01/13 04:32:07;;;;;;;;;17.25;15.75;;;;;;;;5072006;28;45557;-64
2022/01/13 04:34:32;;;;;;;;;13.00;13.00;;;;;;;;5072216;28;45479;-64
2022/01/13 04:36:58;;;;;;;;;15.00;10.25;;;;;;;;5071731;28;46393;-63
2022/01/13 04:39:24;;;;;;;;;9.25;8.00;;;;;;;;5068276;28;45749;-63
2022/01/13 04:41:50;;;;;;;;;10.75;9.25;;;;;;;;5071757;27;45498;-63
2022/01/13 04:44:17;;;;;;;;;11.75;11.75;;;;;;;;5071766;27;45510;-63
2022/01/13 04:46:42;;;;;;;;;11.00;11.00;;;;;;;;5066427;28;45708;-64
2022/01/13 04:49:07;;;;;;;;;11.50;11.50;;;;;;;;5073870;27;45470;-63
2022/01/13 04:51:33;;;;;;;;;14.50;12.50;;;;;;;;5070290;27;44829;-63
2022/01/13 04:53:58;;;;;;;;;12.75;11.75;;;;;;;;5071666;28;45532;-63
2022/01/13 04:56:38;;;;;;;;;14.75;11.50;;;;;;;;5071390;27;47174;-62
2022/01/13 04:59:03;;;;;;;;;7.75;6.50;;;;;;;;5071724;27;45556;-63
2022/01/13 05:01:29;;;;;;;;;5.25;4.75;;;;;;;;5070709;28;45754;-63
2022/01/13 05:03:54;;;;;;;;;11.00;11.00;;;;;;;;5064759;28;45539;-62
2022/01/13 05:06:19;;;;;;;;;12.00;12.00;;;;;;;;5069535;27;45722;-62
2022/01/13 05:08:45;;;;;;;;;15.00;13.00;;;;;;;;5069917;27;46484;-62
2022/01/13 05:11:10;;;;;;;;;13.00;12.00;;;;;;;;5069865;28;45512;-63
2022/01/13 05:13:35;;;;;;;;;15.50;11.50;;;;;;;;5071106;28;45385;-64
2022/01/13 05:16:01;;;;;;;;;14.00;12.50;;;;;;;;5071916;28;47637;-63
2022/01/13 05:21:06;;;;;;;;;15.25;12.25;;;;;;;;5070962;27;45598;-63
2022/01/13 05:23:32;;;;;;;;;20.75;17.50;;;;;;;;5071076;27;45555;-62
2022/01/13 05:25:57;;;;;;;;;15.50;13.50;;;;;;;;5069378;28;47423;-63
2022/01/13 05:28:22;;;;;;;;;16.75;15.75;;;;;;;;5071086;28;45495;-62
2022/01/13 05:30:48;;;;;;;;;11.00;9.75;;;;;;;;5071875;28;45536;-63
2022/01/13 05:33:13;;;;;;;;;10.00;8.00;;;;;;;;5063025;28;45743;-63
2022/01/13 05:35:38;;;;;;;;;11.00;11.00;;;;;;;;5063013;28;46203;-63
2022/01/13 05:38:05;;;;;;;;;16.50;14.75;;;;;;;;5066605;28;45991;-63
2022/01/13 05:40:30;;;;;;;;;15.00;12.50;;;;;;;;5063389;28;45829;-63
2022/01/13 05:42:55;;;;;;;;;14.75;13.25;;;;;;;;5070535;27;45534;-63
2022/01/13 05:45:23;;;;;;;;;12.00;12.00;;;;;;;;5070616;28;45804;-62
2022/01/13 05:47:49;;;;;;;;;15.00;12.00;;;;;;;;5070533;28;45597;-62
2022/01/13 05:50:16;;;;;;;;;15.50;11.75;;;;;;;;5069989;28;45513;-63
2022/01/13 05:52:41;;;;;;;;;13.50;10.50;;;;;;;;5070168;28;45461;-63
2022/01/13 05:55:07;;;;;;;;;12.25;11.50;;;;;;;;5071366;28;48590;-63
2022/01/13 05:57:32;;;;;;;;;13.50;12.00;;;;;;;;5069815;27;45348;-64
2022/01/13 05:59:57;;;;;;;;;10.50;10.50;;;;;;;;5068835;28;47861;-63
2022/01/13 06:02:23;;;;;;;;;13.75;12.50;;;;;;;;5067614;28;45525;-63
2022/01/13 06:04:48;;;;;;;;;14.25;11.00;;;;;;;;5064551;27;45606;-63
2022/01/13 06:07:13;;;;;;;;;15.00;12.75;;;;;;;;5057156;27;45420;-63
2022/01/13 06:09:38;;;;;;;;;17.00;16.25;;;;;;;;5067941;28;45463;-63
2022/01/13 06:12:04;;;;;;;;;10.75;10.75;;;;;;;;5070225;28;45472;-63
2022/01/13 06:14:29;;;;;;;;;16.00;14.25;;;;;;;;5070170;27;46335;-62
2022/01/13 06:16:55;;;;;;;;;19.75;15.00;;;;;;;;5069036;27;45437;-61
2022/01/13 06:19:20;;;;;;;;;13.50;12.00;;;;;;;;5070353;28;45364;-62
2022/01/13 06:21:46;;;;;;;;;15.25;12.25;;;;;;;;5063544;28;45505;-63
2022/01/13 06:24:11;;;;;;;;;16.50;15.50;;;;;;;;5064523;28;45478;-63
2022/01/13 06:26:37;;;;;;;;;17.25;14.75;;;;;;;;5067374;28;45337;-63
2022/01/13 06:29:02;;;;;;;;;15.00;15.00;;;;;;;;5067000;28;45495;-62
2022/01/13 06:31:27;;;;;;;;;17.00;15.75;;;;;;;;5060689;28;45488;-62
2022/01/13 06:33:52;;;;;;;;;14.25;13.25;;;;;;;;5069709;27;45978;-63
2022/01/13 06:36:18;;;;;;;;;16.50;16.50;;;;;;;;5065204;27;45606;-63
2022/01/13 06:38:43;;;;;;;;;19.00;17.75;;;;;;;;5062747;28;45679;-62
2022/01/13 06:41:08;;;;;;;;;15.50;14.75;;;;;;;;5057057;27;45561;-62
2022/01/13 06:43:33;;;;;;;;;15.25;13.75;;;;;;;;5068289;28;47528;-63
2022/01/13 06:45:59;;;;;;;;;18.25;15.00;;;;;;;;5066216;28;44986;-63
2022/01/13 06:48:24;;;;;;;;;15.50;14.50;;;;;;;;5056490;28;45425;-62
2022/01/13 06:50:49;;;;;;;;;16.50;15.25;;;;;;;;5058181;28;45527;-63
2022/01/13 06:53:15;;;;;;;;;15.50;15.50;;;;;;;;5055912;28;48355;-63
2022/01/13 06:55:40;;;;;;;;;15.75;14.75;;;;;;;;5069597;28;45476;-63
2022/01/13 06:58:05;;;;;;;;;15.25;13.25;;;;;;;;5064800;28;45484;-63
2022/01/13 07:00:32;;;;;;;;;18.75;14.75;;;;;;;;5069652;28;45876;-64
2022/01/13 07:02:59;;;;;;;;;17.50;14.75;;;;;;;;5067910;28;48902;-63
2022/01/13 07:05:25;;;;;;;;;17.75;17.00;;;;;;;;5062466;28;45538;-63
2022/01/13 07:07:50;;;;;;;;;15.50;12.25;;;;;;;;5061389;27;46484;-64
2022/01/13 07:10:15;;;;;;;;;12.50;12.00;;;;;;;;5066915;28;45661;-64
2022/01/13 07:12:41;;;;;;;;;15.00;13.50;;;;;;;;5058513;28;45372;-63
2022/01/13 07:15:06;;;;;;;;;15.25;15.25;;;;;;;;5067162;28;45412;-63
2022/01/13 07:17:32;;;;;;;;;13.50;13.25;;;;;;;;5070287;28;45472;-62
2022/01/13 07:19:57;;;;;;;;;12.25;12.25;;;;;;;;5070869;28;45454;-64
2022/01/13 07:22:23;;;;;;;;;17.75;12.50;;;;;;;;5068780;28;46081;-63
2022/01/13 07:24:48;;;;;;;;;17.00;16.00;;;;;;;;5072405;28;45452;-63
2022/01/13 07:27:14;;;;;;;;;15.00;13.25;;;;;;;;5073060;27;45398;-65
2022/01/13 07:29:45;;;;;;;;;16.75;16.25;;;;;;;;5071539;27;47186;-62
2022/01/13 07:32:11;;;;;;;;;17.00;15.50;;;;;;;;5070658;27;46135;-63
2022/01/13 07:34:36;;;;;;;;;20.75;15.75;;;;;;;;5071354;28;45741;-64
2022/01/13 07:37:02;;;;;;;;;22.50;19.00;;;;;;;;5073571;28;45453;-63
2022/01/13 07:39:27;;;;;;;;;14.50;12.00;;;;;;;;5063209;28;45463;-64
2022/01/13 07:41:52;;;;;;;;;23.75;21.75;;;;;;;;5068618;28;47495;-64
2022/01/13 07:44:18;;;;;;;;;19.00;16.75;;;;;;;;5073079;28;45414;-64
2022/01/13 07:46:43;;;;;;;;;23.75;21.75;;;;;;;;5072087;27;45911;-63
2022/01/13 07:49:09;;;;;;;;;22.50;17.00;;;;;;;;5073635;28;45467;-64
2022/01/13 07:51:34;;;;;;;;;17.50;15.50;;;;;;;;5071085;28;47611;-63
2022/01/13 07:54:01;;;;;;;;;19.75;18.50;;;;;;;;5069260;28;46036;-63
2022/01/13 07:56:28;;;;;;;;;19.00;17.00;;;;;;;;5072055;27;45626;-65
2022/01/13 07:58:53;;;;;;;;;20.50;18.00;;;;;;;;5073050;27;45423;-64
2022/01/13 08:01:18;;;;;;;;;21.00;18.00;;;;;;;;5074507;28;46590;-64
2022/01/13 08:03:43;;;;;;;;;20.00;19.00;;;;;;;;5073129;27;45383;-63
2022/01/13 08:06:08;;;;;;;;;24.25;17.00;;;;;;;;5072928;27;45502;-63
2022/01/13 08:08:35;;;;;;;;;19.00;14.50;;;;;;;;5071525;28;45586;-63
2022/01/13 08:11:01;;;;;;;;;17.00;15.75;;;;;;;;5072969;27;45726;-64
2022/01/13 08:13:27;;;;;;;;;5.75;5.50;;;;;;;;5066752;27;46157;-64
2022/01/13 08:15:54;;;;;;;;;23.50;19.25;;;;;;;;5072907;27;45501;-63
2022/01/13 08:21:03;;;;;;;;;19.25;16.75;;;;;;;;5072198;28;45875;-64
2022/01/13 08:23:29;;;;;;;;;24.25;20.00;;;;;;;;5070888;27;45390;-63
2022/01/13 08:25:55;;;;;;;;;22.00;18.00;;;;;;;;5073088;28;45475;-64
2022/01/13 08:28:21;;;;;;;;;24.25;19.25;;;;;;;;5074580;28;45373;-63
2022/01/13 08:30:46;;;;;;;;;21.25;15.25;;;;;;;;5073031;28;45736;-64
2022/01/13 08:33:12;;;;;;;;;24.50;22.25;;;;;;;;5069717;28;45438;-63
2022/01/13 08:35:43;;;;;;;;;21.50;17.75;;;;;;;;5072749;27;45569;-63
2022/01/13 08:38:15;;;;;;;;;24.00;21.25;;;;;;;;5072431;27;45410;-64
2022/01/13 08:40:41;;;;;;;;;15.25;15.25;;;;;;;;5070881;28;48598;-64
2022/01/13 08:43:06;;;;;;;;;21.00;18.25;;;;;;;;5074726;27;45384;-65
2022/01/13 08:45:31;;;;;;;;;16.00;16.00;;;;;;;;5066004;27;45719;-65
2022/01/13 08:47:56;;;;;;;;;16.50;15.75;;;;;;;;5072896;27;45662;-63
2022/01/13 08:50:22;;;;;;;;;20.00;15.75;;;;;;;;5069175;28;47656;-64
2022/01/13 08:52:47;;;;;;;;;17.25;14.00;;;;;;;;5065355;28;45435;-65
2022/01/13 08:55:12;;;;;;;;;17.00;16.75;;;;;;;;5063371;28;45912;-68
2022/01/13 08:57:37;;;;;;;;;24.75;19.25;;;;;;;;5069710;28;45381;-65
2022/01/13 09:00:05;;;;;;;;;19.00;16.25;;;;;;;;5072080;27;45470;-65
2022/01/13 09:02:33;;;;;;;;;19.25;17.00;;;;;;;;5072313;27;45536;-65
2022/01/13 09:04:58;;;;;;;;;21.00;18.00;;;;;;;;5055693;28;45499;-65
2022/01/13 09:07:23;;;;;;;;;19.75;15.50;;;;;;;;5072441;28;45835;-65
2022/01/13 09:09:49;;;;;;;;;26.50;21.50;;;;;;;;5071642;27;47431;-65
2022/01/13 09:12:14;;;;;;;;;19.50;17.00;;;;;;;;5069398;28;45555;-65
2022/01/13 09:14:41;;;;;;;;;23.00;20.00;;;;;;;;5071156;28;45404;-64
2022/01/13 09:17:12;;;;;;;;;24.25;22.00;;;;;;;;5063169;28;45495;-64
2022/01/13 09:19:37;;;;;;;;;24.75;21.25;;;;;;;;5070561;28;45754;-65
2022/01/13 09:22:02;;;;;;;;;23.75;19.00;;;;;;;;5073824;27;45452;-65
2022/01/13 09:24:28;;;;;;;;;21.75;20.50;;;;;;;;5072136;27;45837;-66
2022/01/13 09:26:53;;;;;;;;;20.00;16.25;;;;;;;;5071257;27;45530;-64
2022/01/13 09:29:18;;;;;;;;;23.50;21.25;;;;;;;;5070564;28;47587;-64
2022/01/13 09:31:44;;;;;;;;;20.50;19.25;;;;;;;;5072054;28;45406;-65
2022/01/13 09:34:10;;;;;;;;;24.25;18.25;;;;;;;;5072905;28;45536;-65
2022/01/13 09:36:35;;;;;;;;;21.25;20.50;;;;;;;;5071512;28;45243;-65
2022/01/13 09:39:02;;;;;;;;;26.00;19.00;;;;;;;;5069922;28;49220;-65
2022/01/13 09:41:30;;;;;;;;;20.00;18.00;;;;;;;;5070249;28;45778;-65
2022/01/13 09:43:56;;;;;;;;;20.50;17.75;;;;;;;;5070136;28;45818;-65
2022/01/13 09:46:22;;;;;;;;;27.50;20.75;;;;;;;;5071819;27;45464;-65
2022/01/13 09:48:49;;;;;;;;;26.00;23.00;;;;;;;;5069033;28;48804;-65
2022/01/13 09:51:14;;;;;;;;;30.50;23.75;;;;;;;;5069673;28;45397;-65
2022/01/13 09:53:40;;;;;;;;;26.25;22.00;;;;;;;;5066133;28;45815;-65
2022/01/13 09:56:05;;;;;;;;;24.00;23.75;;;;;;;;5054468;28;45490;-65
2022/01/13 09:58:30;;;;;;;;;22.50;22.25;;;;;;;;5071820;28;45772;-65
2022/01/13 10:00:56;;;;;;;;;20.00;19.25;;;;;;;;5072624;27;45381;-64
2022/01/13 10:03:25;;;;;;;;;26.50;21.25;;;;;;;;5069877;28;45420;-65
2022/01/13 10:05:52;;;;;;;;;20.50;20.50;;;;;;;;5071653;27;45736;-65
2022/01/13 10:08:19;;;;;;;;;23.00;20.00;;;;;;;;5071102;27;45687;-65
2022/01/13 10:10:45;;;;;;;;;24.50;21.25;;;;;;;;5071316;28;45368;-64
2022/01/13 10:13:13;;;;;;;;;23.50;20.00;;;;;;;;5073510;28;45383;-65
2022/01/13 10:18:35;;;;;;;;;15.50;13.25;;;;;;;;5071025;28;46464;-65
2022/01/13 10:21:08;;;;;;;;;20.75;17.00;;;;;;;;5070745;27;45381;-64
2022/01/13 10:23:33;;;;;;;;;19.75;18.25;;;;;;;;5068752;28;45437;-63
2022/01/13 10:26:07;;;;;;;;;22.25;20.00;;;;;;;;5064776;28;45494;-63
2022/01/13 10:28:32;;;;;;;;;17.00;16.00;;;;;;;;5070106;28;48735;-64
2022/01/13 10:30:58;;;;;;;;;25.25;22.75;;;;;;;;5071368;28;45389;-64
2022/01/13 10:33:24;;;;;;;;;23.00;20.75;;;;;;;;5069566;27;45745;-64
2022/01/13 10:35:51;;;;;;;;;22.50;19.75;;;;;;;;5069632;27;45902;-64
2022/01/13 10:38:17;;;;;;;;;19.75;17.50;;;;;;;;5073903;27;45531;-64
2022/01/13 10:40:47;;;;;;;;;19.00;13.00;;;;;;;;5074700;28;45273;-64
2022/01/13 10:43:15;;;;;;;;;21.00;20.00;;;;;;;;5076704;27;45528;-64
2022/01/13 10:45:43;;;;;;;;;15.50;13.75;;;;;;;;5074780;28;45400;-64
2022/01/13 10:48:10;;;;;;;;;16.75;16.00;;;;;;;;5072726;28;48587;-64
2022/01/13 10:50:40;;;;;;;;;21.00;16.75;;;;;;;;5074349;27;45592;-64
2022/01/13 10:53:16;;;;;;;;;18.50;16.25;;;;;;;;5074488;27;45476;-65
2022/01/13 10:55:43;;;;;;;;;20.25;17.75;;;;;;;;5067731;28;45428;-64
2022/01/13 10:58:08;;;;;;;;;15.50;12.00;;;;;;;;5065797;27;46668;-64
2022/01/13 11:00:35;;;;;;;;;17.75;16.50;;;;;;;;5072850;28;45409;-65
2022/01/13 11:03:02;;;;;;;;;14.50;13.25;;;;;;;;5070134;27;45407;-63
2022/01/13 11:05:28;;;;;;;;;17.25;16.00;;;;;;;;5072694;28;46162;-64
2022/01/13 11:07:54;;;;;;;;;26.25;20.00;;;;;;;;5074447;27;45903;-64
2022/01/13 11:10:19;;;;;;;;;25.75;21.00;;;;;;;;5075871;28;45363;-63
2022/01/13 11:12:54;;;;;;;;;23.25;20.75;;;;;;;;5053967;28;45977;-64
2022/01/13 11:15:19;;;;;;;;;28.25;26.25;;;;;;;;5067284;28;45562;-64
2022/01/13 11:17:45;;;;;;;;;29.75;25.75;;;;;;;;5069892;27;47492;-65
2022/01/13 11:20:17;;;;;;;;;25.75;21.25;;;;;;;;5065247;28;45694;-64
2022/01/13 11:22:44;;;;;;;;;31.50;23.75;;;;;;;;5067232;27;45700;-64
2022/01/13 11:25:10;;;;;;;;;23.25;23.25;;;;;;;;5074474;27;45481;-64
2022/01/13 11:27:37;;;;;;;;;29.25;27.50;;;;;;;;5067162;27;46510;-63
2022/01/13 11:30:04;;;;;;;;;27.75;27.75;;;;;;;;5066227;27;45444;-65
2022/01/13 11:32:30;;;;;;;;;25.00;21.75;;;;;;;;5061740;28;45439;-63
2022/01/13 11:34:58;;;;;;;;;33.75;26.25;;;;;;;;5067448;27;47635;-63
2022/01/13 11:37:29;;;;;;;;;33.50;30.75;;;;;;;;5061946;28;47418;-62
2022/01/13 11:39:55;;;;;;;;;27.50;27.50;;;;;;;;5074239;28;45593;-63
2022/01/13 11:42:20;;;;;;;;;36.50;32.75;;;;;;;;5071765;28;45512;-64
2022/01/13 11:45:06;;;;;;;;;31.25;28.00;;;;;;;;5071905;27;45495;-64
2022/01/13 11:47:31;;;;;;;;;47.50;39.50;;;;;;;;5070254;28;47409;-64
2022/01/13 11:50:06;;;;;;;;;39.50;33.25;;;;;;;;5072486;28;45443;-63
2022/01/13 11:52:43;;;;;;;;;29.75;28.25;;;;;;;;5067769;28;45721;-64
2022/01/13 11:55:32;;;;;;;;;21.75;18.50;;;;;;;;5073345;28;45490;-63
2022/01/13 11:58:13;;;;;;;;;27.25;26.25;;;;;;;;5065412;27;46005;-63
2022/01/13 12:00:40;;;;;;;;;34.25;28.00;;;;;;;;5068753;27;45570;-63
2022/01/13 12:03:24;;;;;;;;;36.25;26.50;;;;;;;;5074848;27;45529;-63
2022/01/13 12:05:49;;;;;;;;;33.25;29.75;;;;;;;;5080666;27;45908;-63
2022/01/13 12:08:33;;;;;;;;;28.75;25.25;;;;;;;;5074098;27;45604;-63
2022/01/13 12:10:58;;;;;;;;;32.00;27.00;;;;;;;;5085796;27;45903;-63
2022/01/13 12:13:31;;;;;;;;;34.50;31.50;;;;;;;;5073882;27;45940;-64
2022/01/13 12:15:57;;;;;;;;;35.00;32.00;;;;;;;;5080661;27;45615;-64
2022/01/13 12:18:41;;;;;;;;;37.25;29.75;;;;;;;;5073990;27;47288;-64
2022/01/13 12:21:22;;;;;;;;;29.00;22.50;;;;;;;;5076184;27;45504;-63
2022/01/13 12:23:48;;;;;;;;;23.25;22.75;;;;;;;;5082225;27;45322;-64
2022/01/13 12:26:31;;;;;;;;;36.50;31.00;;;;;;;;5074623;27;45326;-64
2022/01/13 12:29:21;;;;;;;;;37.25;31.75;;;;;;;;5080898;27;47015;-64
2022/01/13 12:31:54;;;;;;;;;31.50;29.75;;;;;;;;5061835;27;45511;-63
2022/01/13 12:34:43;;;;;;;;;33.25;30.50;;;;;;;;5082758;27;45957;-63
2022/01/13 12:37:11;;;;;;;;;36.00;32.50;;;;;;;;5064609;27;45507;-64
2022/01/13 12:39:48;;;;;;;;;40.50;36.00;;;;;;;;5077693;27;46110;-63
2022/01/13 12:42:15;;;;;;;;;29.50;25.25;;;;;;;;5078097;27;45639;-63
2022/01/13 12:47:24;;;;;;;;;33.25;28.25;;;;;;;;5063668;27;45419;-63
2022/01/13 12:49:49;;;;;;;;;38.50;31.50;;;;;;;;5074748;27;46501;-64
2022/01/13 12:52:19;;;;;;;;;31.75;28.50;;;;;;;;5085792;27;45438;-63
2022/01/13 12:54:45;;;;;;;;;27.50;26.25;;;;;;;;5074103;27;45464;-63
2022/01/13 12:57:10;;;;;;;;;29.25;28.00;;;;;;;;5076654;27;45397;-63
2022/01/13 12:59:35;;;;;;;;;25.75;24.00;;;;;;;;5082767;27;48354;-64
2022/01/13 13:02:00;;;;;;;;;24.50;22.25;;;;;;;;5069030;27;45631;-65
2022/01/13 13:04:29;;;;;;;;;31.25;30.50;;;;;;;;5084037;27;45465;-64
2022/01/13 13:06:54;;;;;;;;;29.75;27.50;;;;;;;;5069978;27;45531;-63
2022/01/13 13:09:21;;;;;;;;;31.00;27.75;;;;;;;;5073621;27;46366;-63
2022/01/13 13:11:51;;;;;;;;;36.00;34.25;;;;;;;;5077180;27;45629;-63
2022/01/13 13:14:23;;;;;;;;;35.25;32.75;;;;;;;;5072932;27;45436;-64
2022/01/13 13:16:51;;;;;;;;;34.00;31.25;;;;;;;;5082323;27;45378;-64
2022/01/13 13:19:19;;;;;;;;;37.50;34.50;;;;;;;;5079777;27;47951;-64
2022/01/13 13:21:51;;;;;;;;;35.75;32.50;;;;;;;;5075709;27;46400;-63
2022/01/13 13:24:16;;;;;;;;;32.25;28.75;;;;;;;;5078448;27;45566;-63
2022/01/13 13:26:44;;;;;;;;;34.25;29.50;;;;;;;;5073729;27;48147;-63
2022/01/13 13:29:09;;;;;;;;;40.50;35.25;;;;;;;;5084542;27;46696;-63
2022/01/13 13:31:35;;;;;;;;;40.25;34.25;;;;;;;;5077267;27;45666;-63
2022/01/13 13:34:02;;;;;;;;;38.50;32.50;;;;;;;;5082723;27;45669;-63
2022/01/13 13:36:31;;;;;;;;;38.00;30.75;;;;;;;;5075584;27;45566;-65
2022/01/13 13:38:59;;;;;;;;;33.25;28.50;;;;;;;;5073830;27;46503;-63
2022/01/13 13:41:29;;;;;;;;;34.75;33.25;;;;;;;;5084195;27;45560;-64
2022/01/13 13:43:55;;;;;;;;;47.50;38.25;;;;;;;;5072943;27;45575;-64
2022/01/13 13:46:20;;;;;;;;;38.00;36.50;;;;;;;;5083975;27;45560;-64
2022/01/13 13:48:46;;;;;;;;;39.00;31.75;;;;;;;;5072849;27;47505;-64
2022/01/13 13:51:12;;;;;;;;;31.00;28.75;;;;;;;;5076234;27;45419;-64
2022/01/13 13:53:38;;;;;;;;;22.00;18.00;;;;;;;;5083411;27;45488;-65
2022/01/13 13:56:04;;;;;;;;;32.75;24.75;;;;;;;;5074035;27;45483;-65
2022/01/13 13:58:29;;;;;;;;;30.75;25.50;;;;;;;;5084667;27;45618;-63
2022/01/13 14:01:02;;;;;;;;;30.50;28.00;;;;;;;;5073620;27;45571;-65
2022/01/13 14:03:41;;;;;;;;;25.25;23.75;;;;;;;;5077192;27;45523;-63
2022/01/13 14:06:07;;;;;;;;;33.50;30.25;;;;;;;;5076600;27;45529;-63
2022/01/13 14:08:33;;;;;;;;;29.50;29.25;;;;;;;;5065619;27;46633;-64
2022/01/13 14:11:08;;;;;;;;;33.25;30.75;;;;;;;;5063595;27;45489;-64
2022/01/13 14:13:33;;;;;;;;;30.50;27.00;;;;;;;;5060871;27;45460;-64
2022/01/13 14:15:59;;;;;;;;;32.25;27.75;;;;;;;;5074283;27;45420;-65
2022/01/13 14:18:25;;;;;;;;;34.25;32.00;;;;;;;;5070034;27;45458;-63
2022/01/13 14:20:50;;;;;;;;;27.75;26.75;;;;;;;;5065890;27;45586;-63
2022/01/13 14:23:24;;;;;;;;;30.00;26.00;;;;;;;;5072943;27;45361;-64
2022/01/13 14:25:51;;;;;;;;;28.00;28.00;;;;;;;;5062629;27;45527;-63
2022/01/13 14:28:19;;;;;;;;;26.25;22.00;;;;;;;;5083659;27;46663;-63
2022/01/13 14:30:45;;;;;;;;;34.75;29.00;;;;;;;;5068049;27;45583;-65
2022/01/13 14:33:16;;;;;;;;;34.25;29.50;;;;;;;;5068455;27;45447;-63
2022/01/13 14:35:42;;;;;;;;;32.25;30.00;;;;;;;;5070135;27;45713;-64
2022/01/13 14:38:14;;;;;;;;;29.00;26.50;;;;;;;;5070517;27;48489;-65
2022/01/13 14:40:43;;;;;;;;;34.75;27.75;;;;;;;;5075328;27;45589;-63